Time;durP1;ratioP1;P1;durP2;ratioP2;P2;SDS_P1;SDS_P2;PMS_P1;PMS_P2;Temp;Humidity;BMP_temperature;BMP_pressure;BME280_temperature;BME280_humidity;BME280_pressure;Samples;Min_cycle;Max_cycle;Signal;HPM_P1;HPM_P2
2020/12/01 00:00:39;;;;;;;15.77;14.17;;;;;;;;;;3586482;40;20429;-85
2020/12/01 00:03:05;;;;;;;16.83;15.13;;;;;;;;;;3577934;40;20253;-85
2020/12/01 00:05:31;;;;;;;15.35;13.93;;;;;;;;;;3576076;40;20323;-85
2020/12/01 00:07:57;;;;;;;16.38;14.68;;;;;;;;;;3576315;40;20297;-86
2020/12/01 00:10:23;;;;;;;16.13;14.50;;;;;;;;;;3585588;40;20261;-84
2020/12/01 00:12:49;;;;;;;16.52;14.63;;;;;;;;;;3576301;40;20269;-86
2020/12/01 00:15:17;;;;;;;15.57;13.98;;;;;;;;;;3576149;40;20315;-84
2020/12/01 00:17:44;;;;;;;16.20;14.50;;;;;;;;;;3576012;40;20268;-85
2020/12/01 00:20:10;;;;;;;16.27;14.48;;;;;;;;;;3577332;40;20253;-85
2020/12/01 00:22:37;;;;;;;15.80;14.10;;;;;;;;;;3577472;40;20325;-86
2020/12/01 00:25:04;;;;;;;15.77;14.18;;;;;;;;;;3576786;40;20288;-85
2020/12/01 00:27:31;;;;;;;16.67;14.98;;;;;;;;;;3576143;40;20265;-85
2020/12/01 00:29:56;;;;;;;17.23;15.50;;;;;;;;;;3576779;40;20269;-86
2020/12/01 00:32:22;;;;;;;17.17;15.43;;;;;;;;;;3576112;40;20250;-85
2020/12/01 00:34:48;;;;;;;15.70;14.20;;;;;;;;;;3584889;40;20714;-85
2020/12/01 00:37:14;;;;;;;15.88;14.15;;;;;;;;;;3575502;40;20276;-85
2020/12/01 00:39:40;;;;;;;16.23;14.60;;;;;;;;;;3576775;40;20277;-84
2020/12/01 00:42:06;;;;;;;16.15;14.55;;;;;;;;;;3575958;40;20846;-85
2020/12/01 00:44:32;;;;;;;16.57;14.93;;;;;;;;;;3576267;40;20277;-85
2020/12/01 00:46:58;;;;;;;16.08;14.50;;;;;;;;;;3585774;40;20693;-85
2020/12/01 00:49:24;;;;;;;15.80;14.20;;;;;;;;;;3576689;40;20686;-86
2020/12/01 00:51:50;;;;;;;16.95;15.25;;;;;;;;;;3587697;40;20308;-85
2020/12/01 00:54:17;;;;;;;15.82;14.18;;;;;;;;;;3575664;40;20289;-85
2020/12/01 00:56:43;;;;;;;15.60;14.10;;;;;;;;;;3585125;40;20265;-86
2020/12/01 00:59:10;;;;;;;16.15;14.63;;;;;;;;;;3575170;40;20264;-84
2020/12/01 01:01:36;;;;;;;16.05;14.43;;;;;;;;;;3575059;40;20364;-87
2020/12/01 01:04:02;;;;;;;16.63;14.43;;;;;;;;;;3575758;40;20261;-87
2020/12/01 01:06:28;;;;;;;16.38;14.77;;;;;;;;;;3576007;40;20271;-85
2020/12/01 01:08:54;;;;;;;16.58;14.88;;;;;;;;;;3575630;40;20269;-86
2020/12/01 01:11:26;;;;;;;16.92;15.20;;;;;;;;;;3575391;40;20262;-86
2020/12/01 01:13:52;;;;;;;16.13;14.52;;;;;;;;;;3575859;40;20590;-85
2020/12/01 01:16:18;;;;;;;17.00;15.23;;;;;;;;;;3575357;40;20303;-86
2020/12/01 01:18:44;;;;;;;16.05;14.48;;;;;;;;;;3584608;40;20327;-86
2020/12/01 01:21:10;;;;;;;16.77;14.95;;;;;;;;;;3574981;40;20269;-86
2020/12/01 01:23:36;;;;;;;17.17;15.47;;;;;;;;;;3584492;40;20841;-85
2020/12/01 01:26:02;;;;;;;16.88;15.07;;;;;;;;;;3584581;40;20269;-87
2020/12/01 01:28:28;;;;;;;17.08;15.07;;;;;;;;;;3584550;40;20246;-85
2020/12/01 01:30:54;;;;;;;16.80;15.10;;;;;;;;;;3574740;40;20253;-86
2020/12/01 01:33:20;;;;;;;17.67;15.88;;;;;;;;;;3575276;40;20268;-86
2020/12/01 01:35:46;;;;;;;17.25;15.45;;;;;;;;;;3574697;40;20281;-85
2020/12/01 01:38:12;;;;;;;17.38;15.40;;;;;;;;;;3575033;40;20265;-87
2020/12/01 01:40:38;;;;;;;16.60;14.80;;;;;;;;;;3574454;40;20257;-86
2020/12/01 01:43:04;;;;;;;17.65;15.85;;;;;;;;;;3575245;40;20319;-87
2020/12/01 01:45:36;;;;;;;17.08;15.38;;;;;;;;;;3575415;40;20254;-87
2020/12/01 01:48:02;;;;;;;18.38;16.50;;;;;;;;;;3575574;40;20331;-87
2020/12/01 01:50:29;;;;;;;17.00;15.27;;;;;;;;;;3575663;40;20283;-87
2020/12/01 01:52:55;;;;;;;17.40;15.50;;;;;;;;;;3574885;40;20732;-87
2020/12/01 01:55:24;;;;;;;18.38;16.50;;;;;;;;;;3575417;40;20297;-86
2020/12/01 01:57:52;;;;;;;18.30;16.52;;;;;;;;;;3575091;40;20260;-87
2020/12/01 02:00:46;;;;;;;18.17;16.33;;;;;;;;;;3574712;40;20272;-86
2020/12/01 02:03:12;;;;;;;18.65;16.75;;;;;;;;;;3665696;32;20321;-85
2020/12/01 02:05:38;;;;;;;19.97;16.83;;;;;;;;;;3583975;40;20350;-86
2020/12/01 02:08:03;;;;;;;18.90;16.85;;;;;;;;;;3575384;40;20258;-88
2020/12/01 02:10:30;;;;;;;18.60;16.80;;;;;;;;;;3575041;40;20245;-86
2020/12/01 02:12:57;;;;;;;18.35;16.48;;;;;;;;;;3585193;40;20740;-86
2020/12/01 02:15:23;;;;;;;18.35;16.48;;;;;;;;;;3575269;40;20281;-86
2020/12/01 02:17:49;;;;;;;19.92;17.85;;;;;;;;;;3575509;40;20280;-87
2020/12/01 02:20:17;;;;;;;19.55;17.45;;;;;;;;;;3585085;40;20600;-87
2020/12/01 02:22:45;;;;;;;20.50;18.35;;;;;;;;;;3575590;40;20280;-87
2020/12/01 02:25:12;;;;;;;20.85;18.67;;;;;;;;;;3584438;40;20273;-86
2020/12/01 02:27:38;;;;;;;20.65;18.55;;;;;;;;;;3574623;40;20272;-86
2020/12/01 02:30:08;;;;;;;21.83;18.83;;;;;;;;;;3574628;40;20625;-86
2020/12/01 02:32:34;;;;;;;19.95;17.95;;;;;;;;;;3574837;40;20257;-86
2020/12/01 02:35:00;;;;;;;19.73;17.75;;;;;;;;;;3577830;40;20269;-85
2020/12/01 02:37:28;;;;;;;19.75;17.70;;;;;;;;;;3586482;40;20261;-83
2020/12/01 02:39:54;;;;;;;21.45;19.15;;;;;;;;;;3596457;40;20258;-86
2020/12/01 02:42:23;;;;;;;22.13;19.83;;;;;;;;;;3584551;40;20324;-84
2020/12/01 02:44:50;;;;;;;22.15;19.85;;;;;;;;;;3581953;40;20254;-84
2020/12/01 02:47:16;;;;;;;21.77;19.60;;;;;;;;;;3579562;40;20275;-87
2020/12/01 02:49:42;;;;;;;23.30;20.90;;;;;;;;;;3586474;40;20277;-86
2020/12/01 02:52:08;;;;;;;24.00;21.43;;;;;;;;;;3589140;40;20257;-87
2020/12/01 02:54:34;;;;;;;23.27;20.77;;;;;;;;;;3581429;40;20265;-86
2020/12/01 02:57:00;;;;;;;23.48;20.98;;;;;;;;;;3593059;40;20311;-87
2020/12/01 02:59:26;;;;;;;24.17;21.67;;;;;;;;;;3585515;40;20265;-85
2020/12/01 03:01:52;;;;;;;24.67;22.08;;;;;;;;;;3591939;40;20253;-85
2020/12/01 03:04:18;;;;;;;27.05;24.20;;;;;;;;;;3590886;40;20288;-85
2020/12/01 03:06:44;;;;;;;28.08;25.17;;;;;;;;;;3575817;40;20252;-86
2020/12/01 03:09:12;;;;;;;28.55;25.55;;;;;;;;;;3588002;40;20283;-87
2020/12/01 03:11:38;;;;;;;29.98;26.75;;;;;;;;;;3580641;40;20728;-85
2020/12/01 03:14:04;;;;;;;30.77;27.48;;;;;;;;;;3579848;40;20249;-85
2020/12/01 03:16:30;;;;;;;32.22;28.75;;;;;;;;;;3578217;40;20259;-86
2020/12/01 03:18:56;;;;;;;32.92;29.40;;;;;;;;;;3587194;40;20245;-88
2020/12/01 03:21:22;;;;;;;31.58;28.23;;;;;;;;;;3577286;40;20253;-87
2020/12/01 03:23:48;;;;;;;33.03;29.42;;;;;;;;;;3578248;40;20264;-88
2020/12/01 03:26:15;;;;;;;34.80;29.85;;;;;;;;;;3577587;40;20295;-87
2020/12/01 03:28:42;;;;;;;33.72;30.13;;;;;;;;;;3577835;40;20281;-88
2020/12/01 03:31:08;;;;;;;33.38;29.73;;;;;;;;;;3579033;32;20678;-87
2020/12/01 03:33:34;;;;;;;32.65;29.25;;;;;;;;;;3578677;40;20272;-88
2020/12/01 03:36:00;;;;;;;33.00;29.48;;;;;;;;;;3577834;40;20311;-88
2020/12/01 03:38:26;;;;;;;32.88;29.40;;;;;;;;;;3579100;40;20289;-86
2020/12/01 03:40:53;;;;;;;32.95;29.35;;;;;;;;;;3579740;40;20281;-86
2020/12/01 03:43:19;;;;;;;31.77;28.40;;;;;;;;;;3579412;40;20276;-85
2020/12/01 03:45:45;;;;;;;32.60;28.80;;;;;;;;;;3588062;40;20261;-85
2020/12/01 03:48:11;;;;;;;34.08;30.50;;;;;;;;;;3580156;40;20249;-86
2020/12/01 03:50:37;;;;;;;32.88;29.27;;;;;;;;;;3579186;40;20263;-85
2020/12/01 03:53:04;;;;;;;33.40;29.85;;;;;;;;;;3583491;40;20230;-87
2020/12/01 03:55:30;;;;;;;34.20;30.42;;;;;;;;;;3589591;39;20276;-87
2020/12/01 03:57:57;;;;;;;34.80;31.00;;;;;;;;;;3588506;40;20289;-86
2020/12/01 04:00:24;;;;;;;35.58;31.73;;;;;;;;;;3584083;40;20612;-87
2020/12/01 04:02:50;;;;;;;35.30;31.50;;;;;;;;;;3585687;40;20273;-88
2020/12/01 04:05:17;;;;;;;37.08;33.08;;;;;;;;;;3585446;40;20317;-86
2020/12/01 04:07:44;;;;;;;36.08;32.17;;;;;;;;;;3585087;40;20259;-86
2020/12/01 04:10:11;;;;;;;37.08;33.08;;;;;;;;;;3587315;39;20751;-86
2020/12/01 04:12:37;;;;;;;36.55;32.33;;;;;;;;;;3583140;40;20655;-86
2020/12/01 04:15:03;;;;;;;37.58;33.47;;;;;;;;;;3582053;40;20250;-86
2020/12/01 04:17:29;;;;;;;40.28;35.60;;;;;;;;;;3583186;40;20257;-87
2020/12/01 04:19:55;;;;;;;41.08;35.50;;;;;;;;;;3582169;40;20277;-87
2020/12/01 04:22:22;;;;;;;40.58;35.90;;;;;;;;;;3587505;40;20305;-87
2020/12/01 04:24:48;;;;;;;39.92;35.03;;;;;;;;;;3596411;40;20315;-86
2020/12/01 04:27:15;;;;;;;40.22;35.30;;;;;;;;;;3591055;40;20277;-87
2020/12/01 04:29:41;;;;;;;40.25;35.92;;;;;;;;;;3581145;40;20250;-85
2020/12/01 04:32:07;;;;;;;40.78;35.63;;;;;;;;;;3584379;40;20296;-87
2020/12/01 04:34:33;;;;;;;42.53;37.70;;;;;;;;;;3581473;40;20269;-86
2020/12/01 04:37:00;;;;;;;40.80;36.40;;;;;;;;;;3580755;40;20278;-86
2020/12/01 04:39:26;;;;;;;44.55;38.13;;;;;;;;;;3585689;40;20265;-86
2020/12/01 04:41:52;;;;;;;41.20;36.70;;;;;;;;;;3585063;40;20291;-87
2020/12/01 04:44:39;;;;;;;40.90;36.50;;;;;;;;;;3592296;40;20748;-87
2020/12/01 04:47:13;;;;;;;42.47;37.60;;;;;;;;;;3585648;40;20265;-87
2020/12/01 04:49:41;;;;;;;43.50;38.03;;;;;;;;;;3582353;40;20280;-86
2020/12/01 04:52:26;;;;;;;43.35;38.65;;;;;;;;;;3582902;40;20732;-86
2020/12/01 04:54:52;;;;;;;45.10;40.05;;;;;;;;;;3584373;39;20933;-87
2020/12/01 04:57:18;;;;;;;44.50;39.03;;;;;;;;;;3587196;40;20253;-87
2020/12/01 04:59:47;;;;;;;44.85;39.40;;;;;;;;;;3583509;40;20316;-86
2020/12/01 05:02:26;;;;;;;46.03;41.00;;;;;;;;;;3580798;40;20265;-86
2020/12/01 05:05:13;;;;;;;45.42;40.40;;;;;;;;;;3591209;40;20261;-85
2020/12/01 05:07:56;;;;;;;47.90;40.50;;;;;;;;;;3916991;27;20289;-86
2020/12/01 05:10:22;;;;;;;44.85;39.40;;;;;;;;;;3600909;40;20275;-85
2020/12/01 05:12:56;;;;;;;45.88;40.88;;;;;;;;;;3588523;40;20290;-86
2020/12/01 05:15:31;;;;;;;45.13;39.45;;;;;;;;;;3604091;40;20291;-84
2020/12/01 05:18:17;;;;;;;45.53;40.42;;;;;;;;;;3593952;40;20261;-87
2020/12/01 05:23:16;;;;;;;51.17;43.85;;;;;;;;;;3566235;40;20248;-87
2020/12/01 05:40:31;;;;;;;51.67;44.38;;;;;;;;;;3599391;40;20251;-85
2020/12/01 05:42:58;;;;;;;50.07;43.73;;;;;;;;;;3606896;32;20424;-86
2020/12/01 05:45:24;;;;;;;50.10;43.63;;;;;;;;;;3594199;40;20283;-84
2020/12/01 05:47:52;;;;;;;48.78;42.03;;;;;;;;;;3583700;40;20265;-82
2020/12/01 05:50:26;;;;;;;52.22;45.53;;;;;;;;;;3584627;40;20257;-85
2020/12/01 05:53:12;;;;;;;50.78;43.45;;;;;;;;;;3577258;40;20787;-86
2020/12/01 05:55:38;;;;;;;49.60;42.55;;;;;;;;;;3580387;32;20725;-84
2020/12/01 06:01:42;;;;;;;46.70;41.47;;;;;;;;;;5120658;27;20368;-84
2020/12/01 06:04:37;;;;;;;51.35;43.45;;;;;;;;;;5101929;28;20751;-84
2020/12/01 06:07:19;;;;;;;50.25;44.47;;;;;;;;;;5088005;28;20380;-87
2020/12/01 06:10:15;;;;;;;47.00;41.75;;;;;;;;;;5085760;28;20441;-83
2020/12/01 06:12:44;;;;;;;49.20;43.50;;;;;;;;;;5090127;28;20461;-83
2020/12/01 06:15:21;;;;;;;48.33;41.28;;;;;;;;;;5107078;28;20368;-85
2020/12/01 06:17:59;;;;;;;48.87;42.00;;;;;;;;;;5092745;28;20866;-85
2020/12/01 06:20:25;;;;;;;49.58;43.13;;;;;;;;;;5101718;28;20401;-85
2020/12/01 06:23:16;;;;;;;48.00;42.40;;;;;;;;;;5099892;28;20382;-84
2020/12/01 06:25:48;;;;;;;51.90;44.17;;;;;;;;;;5109101;28;20438;-84
2020/12/01 06:28:34;;;;;;;49.97;43.03;;;;;;;;;;5105417;28;20419;-83
2020/12/01 06:31:03;;;;;;;51.67;43.95;;;;;;;;;;5067650;28;20364;-83
2020/12/01 06:33:40;;;;;;;52.15;44.00;;;;;;;;;;5106019;28;20378;-83
2020/12/01 06:36:25;;;;;;;48.63;42.70;;;;;;;;;;5101956;28;20362;-83
2020/12/01 06:39:02;;;;;;;51.15;43.05;;;;;;;;;;5100067;28;20356;-84
2020/12/01 06:41:29;;;;;;;49.03;43.08;;;;;;;;;;5098308;28;20384;-84
2020/12/01 06:44:00;;;;;;;50.83;43.53;;;;;;;;;;5097171;28;20755;-83
2020/12/01 06:46:33;;;;;;;50.87;44.30;;;;;;;;;;5078432;28;20485;-84
2020/12/01 06:48:59;;;;;;;52.63;44.80;;;;;;;;;;5096519;28;20453;-84
2020/12/01 06:51:25;;;;;;;51.07;44.13;;;;;;;;;;5099924;28;20430;-83
2020/12/01 06:53:51;;;;;;;51.13;43.88;;;;;;;;;;5096736;28;20397;-85
2020/12/01 06:56:18;;;;;;;49.72;42.20;;;;;;;;;;5100440;28;20367;-83
2020/12/01 06:58:48;;;;;;;46.55;41.45;;;;;;;;;;5101869;28;20364;-83
2020/12/01 07:01:23;;;;;;;51.05;43.40;;;;;;;;;;5095029;28;20744;-84
2020/12/01 07:04:09;;;;;;;48.00;41.73;;;;;;;;;;5101088;28;20746;-84
2020/12/01 07:06:42;;;;;;;50.40;43.88;;;;;;;;;;5085067;28;20372;-83
2020/12/01 07:09:14;;;;;;;50.88;43.72;;;;;;;;;;5095622;28;20380;-83
2020/12/01 07:11:57;;;;;;;50.25;43.47;;;;;;;;;;5084629;28;20358;-84
2020/12/01 07:14:31;;;;;;;52.78;44.13;;;;;;;;;;5080747;28;20380;-83
2020/12/01 07:16:58;;;;;;;49.60;43.25;;;;;;;;;;5080260;28;20365;-84
2020/12/01 07:19:36;;;;;;;51.20;43.70;;;;;;;;;;5078511;28;20448;-84
2020/12/01 07:22:20;;;;;;;50.63;43.38;;;;;;;;;;5085340;28;20878;-83
2020/12/01 07:24:52;;;;;;;52.55;45.40;;;;;;;;;;5086414;28;20415;-84
2020/12/01 07:27:24;;;;;;;50.42;43.17;;;;;;;;;;5091228;28;20388;-83
2020/12/01 07:29:54;;;;;;;51.63;44.35;;;;;;;;;;5088870;28;20373;-84
2020/12/01 07:32:27;;;;;;;52.43;45.03;;;;;;;;;;5082995;28;20455;-83
2020/12/01 07:35:04;;;;;;;51.70;44.47;;;;;;;;;;5082158;28;20372;-84
2020/12/01 07:37:53;;;;;;;54.30;45.22;;;;;;;;;;5082231;28;20686;-84
2020/12/01 07:40:23;;;;;;;50.83;43.50;;;;;;;;;;5079559;28;20470;-84
2020/12/01 07:42:56;;;;;;;50.92;43.38;;;;;;;;;;5082581;28;20762;-83
2020/12/01 07:45:22;;;;;;;51.43;44.57;;;;;;;;;;5079074;28;20451;-84
2020/12/01 07:47:55;;;;;;;54.05;44.22;;;;;;;;;;5082239;28;20924;-84
2020/12/01 07:50:21;;;;;;;49.05;42.05;;;;;;;;;;5084948;28;20360;-83
2020/12/01 07:52:48;;;;;;;51.17;44.55;;;;;;;;;;5084251;28;20412;-83
2020/12/01 07:55:18;;;;;;;56.90;45.83;;;;;;;;;;5087823;28;20554;-83
2020/12/01 07:57:44;;;;;;;50.00;42.75;;;;;;;;;;5082622;28;20741;-84
2020/12/01 08:00:16;;;;;;;51.53;44.03;;;;;;;;;;5083269;28;20417;-84
2020/12/01 08:02:42;;;;;;;49.50;43.88;;;;;;;;;;5080426;28;20396;-83
2020/12/01 08:05:12;;;;;;;52.60;44.63;;;;;;;;;;5078164;28;20449;-84
2020/12/01 08:07:38;;;;;;;52.03;44.57;;;;;;;;;;5084731;28;20367;-84
2020/12/01 08:10:06;;;;;;;53.13;43.45;;;;;;;;;;5082814;28;20371;-84
2020/12/01 08:12:34;;;;;;;52.38;44.53;;;;;;;;;;5076195;28;20370;-83
2020/12/01 08:15:00;;;;;;;51.08;43.17;;;;;;;;;;5072963;28;20473;-83
2020/12/01 08:17:28;;;;;;;53.42;44.58;;;;;;;;;;5074311;28;20364;-84
2020/12/01 08:19:54;;;;;;;50.30;42.95;;;;;;;;;;5072834;28;20752;-84
2020/12/01 08:22:23;;;;;;;51.77;43.50;;;;;;;;;;5072726;28;20895;-84
2020/12/01 08:24:49;;;;;;;49.65;42.63;;;;;;;;;;5072462;28;20362;-84
2020/12/01 08:27:15;;;;;;;52.55;43.88;;;;;;;;;;5073465;28;20423;-84
2020/12/01 08:29:43;;;;;;;49.17;42.80;;;;;;;;;;5072066;28;20874;-85
2020/12/01 08:32:19;;;;;;;48.77;41.03;;;;;;;;;;5073062;28;20458;-83
2020/12/01 08:35:06;;;;;;;47.30;42.00;;;;;;;;;;5071732;28;20363;-84
2020/12/01 08:37:38;;;;;;;48.42;42.15;;;;;;;;;;5072986;28;20359;-84
2020/12/01 08:40:04;;;;;;;46.97;41.33;;;;;;;;;;5072945;28;20460;-84
2020/12/01 08:42:48;;;;;;;48.25;40.65;;;;;;;;;;5072878;28;20848;-84
2020/12/01 08:45:14;;;;;;;48.75;41.65;;;;;;;;;;5071369;28;20466;-85
2020/12/01 08:47:41;;;;;;;48.30;41.63;;;;;;;;;;5072495;28;20386;-84
2020/12/01 08:50:19;;;;;;;47.58;41.90;;;;;;;;;;5072565;28;20403;-84
2020/12/01 08:52:46;;;;;;;47.60;40.90;;;;;;;;;;5071577;28;20382;-83
2020/12/01 08:55:23;;;;;;;50.20;42.05;;;;;;;;;;5072709;28;20354;-84
2020/12/01 08:57:52;;;;;;;46.03;40.33;;;;;;;;;;5071196;28;20549;-85
2020/12/01 09:00:19;;;;;;;46.85;40.60;;;;;;;;;;5072378;28;20451;-84
2020/12/01 09:02:47;;;;;;;48.13;40.63;;;;;;;;;;5071252;28;20721;-84
2020/12/01 09:05:20;;;;;;;48.30;40.92;;;;;;;;;;5072587;28;20351;-84
2020/12/01 09:07:49;;;;;;;45.40;39.85;;;;;;;;;;5072429;28;20717;-84
2020/12/01 09:10:22;;;;;;;42.65;37.97;;;;;;;;;;5072073;28;20382;-85
2020/12/01 09:15:55;;;;;;;44.05;39.22;;;;;;;;;;5072150;28;20397;-85
2020/12/01 09:23:42;;;;;;;43.90;38.75;;;;;;;;;;5072290;28;20361;-84
2020/12/01 09:26:18;;;;;;;44.78;38.63;;;;;;;;;;5070676;28;20370;-85
2020/12/01 09:28:49;;;;;;;42.17;37.17;;;;;;;;;;5071995;28;20365;-84
2020/12/01 09:31:15;;;;;;;46.25;39.28;;;;;;;;;;5070640;28;20374;-85
2020/12/01 09:33:41;;;;;;;41.22;36.67;;;;;;;;;;5070409;28;20396;-81
2020/12/01 09:36:07;;;;;;;44.50;38.60;;;;;;;;;;5075916;28;20360;-83
2020/12/01 09:38:33;;;;;;;42.17;37.58;;;;;;;;;;5080097;28;20358;-84
2020/12/01 09:41:00;;;;;;;42.28;37.08;;;;;;;;;;5075563;28;20965;-83
2020/12/01 09:43:40;;;;;;;41.50;37.00;;;;;;;;;;5089964;28;20417;-83
2020/12/01 09:46:09;;;;;;;42.42;37.30;;;;;;;;;;5079791;28;20366;-82
2020/12/01 09:48:43;;;;;;;41.23;36.73;;;;;;;;;;5078761;28;20958;-83
2020/12/01 09:51:10;;;;;;;41.35;36.85;;;;;;;;;;5086591;28;20511;-83
2020/12/01 10:35:50;;;;;;;39.90;34.10;;;;;;;;;;5081481;28;20719;-86
2020/12/01 10:38:16;;;;;;;39.42;35.10;;;;;;;;;;5091462;28;20746;-85
2020/12/01 10:40:42;;;;;;;39.80;35.33;;;;;;;;;;5092172;28;20392;-90
2020/12/01 10:43:08;;;;;;;41.05;35.90;;;;;;;;;;5076433;28;20882;-92
2020/12/01 10:45:35;;;;;;;44.40;36.67;;;;;;;;;;5078818;28;20400;-86
2020/12/01 10:48:01;;;;;;;40.47;34.78;;;;;;;;;;5095852;28;20417;-86
2020/12/01 10:50:28;;;;;;;40.35;35.17;;;;;;;;;;5077966;28;20382;-84
2020/12/01 10:52:54;;;;;;;41.00;35.60;;;;;;;;;;5093157;28;20434;-85
2020/12/01 10:55:22;;;;;;;40.53;35.25;;;;;;;;;;5093933;28;20372;-83
2020/12/01 10:57:54;;;;;;;42.45;34.80;;;;;;;;;;5075960;28;20876;-85
2020/12/01 11:00:22;;;;;;;39.60;35.28;;;;;;;;;;5081057;28;20954;-85
2020/12/01 11:02:48;;;;;;;41.13;35.15;;;;;;;;;;5081974;28;20408;-85
2020/12/01 11:05:21;;;;;;;38.58;34.38;;;;;;;;;;5093271;28;20411;-85
2020/12/01 11:07:47;;;;;;;41.53;35.22;;;;;;;;;;5095231;28;20863;-85
2020/12/01 11:10:13;;;;;;;37.97;32.78;;;;;;;;;;5086552;28;20460;-85
2020/12/01 11:12:39;;;;;;;38.57;34.17;;;;;;;;;;5084497;28;20520;-85
2020/12/01 11:15:06;;;;;;;36.90;32.40;;;;;;;;;;5090539;28;20370;-86
2020/12/01 11:17:32;;;;;;;35.50;31.60;;;;;;;;;;5090783;28;20371;-84
2020/12/01 11:19:58;;;;;;;35.50;31.63;;;;;;;;;;5093342;28;20416;-86
2020/12/01 11:22:24;;;;;;;39.88;34.00;;;;;;;;;;5094909;28;20396;-84
2020/12/01 11:24:50;;;;;;;34.72;30.77;;;;;;;;;;5092392;28;20383;-84
2020/12/01 11:27:16;;;;;;;35.92;32.13;;;;;;;;;;5088335;28;20378;-83
2020/12/01 11:29:42;;;;;;;33.85;30.10;;;;;;;;;;5074258;28;20419;-82
2020/12/01 11:32:09;;;;;;;35.30;31.45;;;;;;;;;;5080354;28;20380;-86
2020/12/01 11:34:36;;;;;;;37.60;33.47;;;;;;;;;;5086707;28;20380;-84
2020/12/01 11:37:02;;;;;;;35.83;31.95;;;;;;;;;;5093610;28;20765;-82
2020/12/01 11:39:28;;;;;;;35.60;31.77;;;;;;;;;;5093177;28;20946;-84
2020/12/01 11:41:54;;;;;;;37.50;32.75;;;;;;;;;;5082529;28;20380;-81
2020/12/01 11:44:20;;;;;;;38.03;32.33;;;;;;;;;;5086298;28;20428;-83
2020/12/01 11:46:49;;;;;;;37.63;32.05;;;;;;;;;;5074909;28;20366;-81
2020/12/01 11:49:18;;;;;;;35.93;32.13;;;;;;;;;;5089124;28;20522;-82
2020/12/01 11:51:47;;;;;;;35.38;31.33;;;;;;;;;;5093240;28;20361;-85
2020/12/01 11:54:16;;;;;;;35.53;31.60;;;;;;;;;;5094818;28;20349;-84
2020/12/01 11:56:45;;;;;;;36.42;31.38;;;;;;;;;;5093276;28;20360;-84
2020/12/01 11:59:14;;;;;;;36.88;32.13;;;;;;;;;;5088838;28;20920;-84
2020/12/01 12:01:42;;;;;;;36.40;32.13;;;;;;;;;;5086238;28;20384;-84
2020/12/01 12:04:08;;;;;;;37.00;32.22;;;;;;;;;;5085734;28;20378;-83
2020/12/01 12:06:37;;;;;;;34.65;30.63;;;;;;;;;;5081348;28;20449;-85
2020/12/01 12:09:05;;;;;;;35.20;31.45;;;;;;;;;;5092082;28;20428;-85
2020/12/01 12:11:31;;;;;;;38.95;31.48;;;;;;;;;;5087149;28;20376;-86
2020/12/01 12:13:57;;;;;;;36.53;32.67;;;;;;;;;;5093123;28;20929;-83
2020/12/01 12:16:24;;;;;;;35.40;31.60;;;;;;;;;;5091487;28;20377;-86
2020/12/01 12:18:50;;;;;;;41.53;36.73;;;;;;;;;;5091709;28;20388;-83
2020/12/01 12:21:18;;;;;;;82.50;73.75;;;;;;;;;;5086358;28;20915;-85
2020/12/01 12:23:44;;;;;;;42.90;38.50;;;;;;;;;;5074744;28;20366;-84
2020/12/01 12:26:11;;;;;;;33.83;30.17;;;;;;;;;;5079014;28;20379;-85
2020/12/01 12:28:37;;;;;;;33.03;29.45;;;;;;;;;;5073502;28;20374;-84
2020/12/01 12:31:04;;;;;;;35.67;31.80;;;;;;;;;;5073343;28;20366;-84
2020/12/01 12:33:30;;;;;;;34.85;31.15;;;;;;;;;;5092784;28;20399;-85
2020/12/01 12:35:57;;;;;;;34.57;30.77;;;;;;;;;;5092871;28;20432;-83
2020/12/01 12:38:23;;;;;;;34.45;30.52;;;;;;;;;;5097860;28;20362;-85
2020/12/01 12:40:51;;;;;;;33.70;30.05;;;;;;;;;;5083245;28;20387;-85
2020/12/01 12:43:17;;;;;;;34.07;30.37;;;;;;;;;;5087535;28;20387;-85
2020/12/01 12:45:43;;;;;;;34.33;30.65;;;;;;;;;;5090092;28;20368;-84
2020/12/01 12:48:09;;;;;;;34.63;30.83;;;;;;;;;;5086982;28;20370;-83
2020/12/01 12:50:35;;;;;;;33.55;29.90;;;;;;;;;;5077077;28;20391;-84
2020/12/01 12:53:01;;;;;;;34.70;30.92;;;;;;;;;;5087568;28;20415;-85
2020/12/01 12:55:27;;;;;;;34.07;30.47;;;;;;;;;;5092704;28;20430;-84
2020/12/01 12:57:53;;;;;;;35.28;31.48;;;;;;;;;;5094141;28;20357;-85
2020/12/01 13:00:19;;;;;;;34.20;30.60;;;;;;;;;;5090218;28;20461;-83
2020/12/01 13:02:45;;;;;;;35.78;31.88;;;;;;;;;;5094011;28;20356;-87
2020/12/01 13:05:13;;;;;;;35.40;31.60;;;;;;;;;;5091071;28;20852;-84
2020/12/01 13:07:39;;;;;;;34.17;30.45;;;;;;;;;;5091557;28;20838;-83
2020/12/01 13:10:05;;;;;;;34.10;30.40;;;;;;;;;;5071072;28;20389;-83
2020/12/01 13:12:31;;;;;;;35.58;30.90;;;;;;;;;;5080616;28;20365;-83
2020/12/01 13:14:57;;;;;;;37.53;31.75;;;;;;;;;;5079052;28;20373;-84
2020/12/01 13:17:23;;;;;;;36.03;32.00;;;;;;;;;;5084633;28;20368;-84
2020/12/01 13:19:49;;;;;;;35.90;32.00;;;;;;;;;;5073205;28;20422;-83
2020/12/01 13:22:15;;;;;;;33.22;29.45;;;;;;;;;;5069898;28;20420;-81
2020/12/01 13:24:41;;;;;;;33.25;29.17;;;;;;;;;;5077230;28;20913;-81
2020/12/01 13:27:07;;;;;;;33.42;29.80;;;;;;;;;;5080755;28;20376;-80
2020/12/01 13:29:33;;;;;;;34.47;30.63;;;;;;;;;;5082145;28;20376;-80
2020/12/01 13:31:59;;;;;;;34.77;30.83;;;;;;;;;;5074701;28;20384;-80
2020/12/01 13:34:25;;;;;;;34.10;29.92;;;;;;;;;;5079274;28;20442;-80
2020/12/01 13:36:53;;;;;;;33.53;29.92;;;;;;;;;;5083233;28;20380;-82
2020/12/01 13:39:19;;;;;;;33.25;29.70;;;;;;;;;;5090889;28;20360;-79
2020/12/01 13:41:48;;;;;;;35.00;30.27;;;;;;;;;;5073437;28;20420;-80
2020/12/01 13:44:17;;;;;;;35.47;30.42;;;;;;;;;;5071504;28;20377;-82
2020/12/01 13:46:43;;;;;;;31.42;28.00;;;;;;;;;;5073330;28;20373;-83
2020/12/01 13:49:12;;;;;;;32.90;29.38;;;;;;;;;;5081589;28;20369;-84
2020/12/01 13:51:38;;;;;;;34.88;29.77;;;;;;;;;;5073423;28;20834;-82
2020/12/01 13:54:04;;;;;;;34.93;30.03;;;;;;;;;;5081049;28;20362;-83
2020/12/01 13:56:30;;;;;;;33.35;29.70;;;;;;;;;;5088286;28;20842;-82
2020/12/01 13:58:58;;;;;;;34.35;30.63;;;;;;;;;;5089417;28;20360;-81
2020/12/01 14:01:24;;;;;;;34.53;30.17;;;;;;;;;;5092646;28;20430;-82
2020/12/01 14:03:50;;;;;;;35.53;30.77;;;;;;;;;;5089476;28;20352;-82
2020/12/01 14:06:17;;;;;;;32.57;29.00;;;;;;;;;;5090526;28;20379;-83
2020/12/01 14:08:43;;;;;;;32.67;29.20;;;;;;;;;;5089181;28;20461;-82
2020/12/01 14:11:11;;;;;;;34.10;30.40;;;;;;;;;;5090287;28;20368;-83
2020/12/01 14:13:37;;;;;;;33.95;29.10;;;;;;;;;;5090404;28;20356;-81
2020/12/01 14:16:03;;;;;;;33.03;29.42;;;;;;;;;;5090508;28;20360;-81
2020/12/01 14:18:29;;;;;;;33.15;29.40;;;;;;;;;;5090490;28;20357;-81
2020/12/01 14:20:55;;;;;;;34.45;29.85;;;;;;;;;;5090364;28;20387;-81
2020/12/01 14:23:21;;;;;;;32.73;29.10;;;;;;;;;;5094611;28;20858;-82
2020/12/01 14:25:47;;;;;;;33.67;30.05;;;;;;;;;;5095174;28;20444;-82
2020/12/01 14:28:13;;;;;;;32.38;28.40;;;;;;;;;;5094993;28;20360;-81
2020/12/01 14:30:39;;;;;;;31.63;28.23;;;;;;;;;;5094003;28;20348;-80
2020/12/01 14:33:05;;;;;;;33.55;29.88;;;;;;;;;;5094211;28;20898;-83
2020/12/01 14:35:31;;;;;;;34.10;28.98;;;;;;;;;;5094178;28;20750;-82
2020/12/01 14:37:57;;;;;;;32.63;28.73;;;;;;;;;;5094593;28;20826;-81
2020/12/01 14:40:24;;;;;;;30.95;27.50;;;;;;;;;;5094146;28;20396;-81
2020/12/01 14:42:50;;;;;;;30.88;27.58;;;;;;;;;;5094620;28;20727;-82
2020/12/01 14:45:17;;;;;;;32.47;28.38;;;;;;;;;;5094735;28;20367;-81
2020/12/01 14:47:50;;;;;;;31.73;28.15;;;;;;;;;;5094274;28;20368;-90
2020/12/01 14:50:16;;;;;;;32.78;28.20;;;;;;;;;;5095364;28;20371;-84
2020/12/01 14:52:45;;;;;;;30.40;27.13;;;;;;;;;;5093806;28;20496;-84
2020/12/01 14:55:30;;;;;;;29.75;26.65;;;;;;;;;;5083999;28;20384;-83
2020/12/01 14:58:02;;;;;;;31.83;27.52;;;;;;;;;;5085459;28;20388;-83
2020/12/01 15:00:28;;;;;;;30.27;26.90;;;;;;;;;;5082076;28;20433;-83
2020/12/01 15:02:56;;;;;;;30.40;27.10;;;;;;;;;;5089781;28;20371;-84
2020/12/01 15:05:33;;;;;;;31.03;26.60;;;;;;;;;;5080309;28;20376;-84
2020/12/01 15:08:17;;;;;;;29.65;26.50;;;;;;;;;;5085478;28;20380;-84
2020/12/01 15:10:47;;;;;;;30.20;26.95;;;;;;;;;;5086555;28;20368;-85
2020/12/01 15:13:13;;;;;;;30.92;27.63;;;;;;;;;;5081897;28;20360;-84
2020/12/01 15:15:41;;;;;;;29.02;25.92;;;;;;;;;;5081278;28;20815;-85
2020/12/01 15:18:11;;;;;;;29.63;26.48;;;;;;;;;;5081739;28;20376;-86
2020/12/01 15:20:37;;;;;;;30.03;26.80;;;;;;;;;;5089160;28;20490;-85
2020/12/01 15:23:03;;;;;;;29.55;26.45;;;;;;;;;;5084218;28;20364;-86
2020/12/01 15:25:31;;;;;;;28.95;25.77;;;;;;;;;;5090871;28;20352;-85
2020/12/01 15:28:07;;;;;;;28.48;25.50;;;;;;;;;;5093898;28;20395;-85
2020/12/01 15:30:34;;;;;;;30.33;27.13;;;;;;;;;;5093855;28;20381;-84
2020/12/01 15:33:01;;;;;;;29.42;26.38;;;;;;;;;;5093201;28;20380;-86
2020/12/01 15:35:34;;;;;;;28.48;25.33;;;;;;;;;;5087639;28;20391;-84